createdAt,value
2018-08-17T00:01:20.118Z,94.40
2018-08-17T00:04:23.743Z,94.60
2018-08-17T00:07:27.382Z,94.50
2018-08-17T00:10:31.000Z,94.60
2018-08-17T00:13:34.631Z,94.70
2018-08-17T00:16:38.603Z,94.80
2018-08-17T00:19:42.247Z,94.90
2018-08-17T00:22:45.878Z,95.00
2018-08-17T00:25:49.477Z,95.10
2018-08-17T00:28:53.072Z,95.20
2018-08-17T00:31:56.689Z,95.50
2018-08-17T00:35:00.323Z,95.70
2018-08-17T00:38:03.944Z,95.80
2018-08-17T00:41:07.543Z,96.00
2018-08-17T00:44:11.248Z,96.10
2018-08-17T00:47:14.850Z,96.40
2018-08-17T00:50:18.466Z,96.50
2018-08-17T00:53:22.090Z,96.70
2018-08-17T00:56:25.694Z,96.90
2018-08-17T00:59:29.323Z,97.10
2018-08-17T01:02:32.974Z,97.20
2018-08-17T01:05:36.594Z,97.40
2018-08-17T01:08:40.197Z,97.60
2018-08-17T01:11:43.810Z,97.80
2018-08-17T01:14:47.411Z,97.90
2018-08-17T01:17:51.027Z,98.00
2018-08-17T01:20:54.643Z,98.20
2018-08-17T01:23:58.450Z,98.50
2018-08-17T01:27:02.054Z,98.50
2018-08-17T01:30:06.327Z,98.70
2018-08-17T01:33:09.927Z,98.80
2018-08-17T01:36:13.562Z,99.00
2018-08-17T01:39:17.175Z,99.30
2018-08-17T01:42:20.795Z,99.40
2018-08-17T01:45:24.414Z,99.60
2018-08-17T01:48:28.039Z,99.60
2018-08-17T01:51:31.954Z,99.80
2018-08-17T01:54:35.682Z,99.90
2018-08-17T01:57:39.622Z,99.90
2018-08-17T02:00:43.241Z,99.90
2018-08-17T02:03:46.858Z,99.90
2018-08-17T02:06:50.483Z,99.90
2018-08-17T02:09:54.167Z,99.90
2018-08-17T02:12:57.788Z,99.90
2018-08-17T02:16:01.396Z,99.90
2018-08-17T02:19:11.410Z,99.90
2018-08-17T02:22:15.012Z,99.90
2018-08-17T02:25:18.627Z,99.90
2018-08-17T02:28:22.232Z,99.90
2018-08-17T02:31:25.860Z,99.90
2018-08-17T02:34:29.470Z,99.90
2018-08-17T02:37:33.104Z,99.90
2018-08-17T02:40:36.711Z,99.90
2018-08-17T02:43:40.347Z,99.90
2018-08-17T02:46:44.000Z,99.90
2018-08-17T02:49:47.802Z,99.90
2018-08-17T02:52:51.422Z,99.90
2018-08-17T02:55:55.026Z,99.90
2018-08-17T02:58:58.647Z,99.90
2018-08-17T03:02:02.276Z,99.90
2018-08-17T03:05:05.902Z,99.90
2018-08-17T03:08:09.522Z,99.90
2018-08-17T03:11:13.114Z,99.90
2018-08-17T03:14:16.745Z,99.90
2018-08-17T03:17:20.361Z,99.90
2018-08-17T03:20:23.993Z,99.90
2018-08-17T03:23:27.642Z,99.90
2018-08-17T03:26:31.278Z,99.90
2018-08-17T03:29:34.875Z,99.90
2018-08-17T03:32:38.494Z,99.90
2018-08-17T03:35:42.095Z,99.90
2018-08-17T03:38:45.942Z,99.90
2018-08-17T03:41:49.557Z,99.90
2018-08-17T03:44:53.169Z,99.90
2018-08-17T03:47:56.774Z,99.90
2018-08-17T03:51:00.381Z,99.90
2018-08-17T03:54:03.998Z,99.90
2018-08-17T03:57:07.609Z,99.90
2018-08-17T04:00:11.763Z,99.90
2018-08-17T04:03:15.401Z,99.90
2018-08-17T04:06:19.020Z,99.90
2018-08-17T04:09:22.612Z,99.90
2018-08-17T04:12:26.252Z,99.90
2018-08-17T04:15:30.034Z,99.90
2018-08-17T04:18:33.558Z,99.90
2018-08-17T04:21:37.158Z,99.90
2018-08-17T04:24:40.773Z,99.90
2018-08-17T04:27:44.366Z,99.90
2018-08-17T04:30:47.983Z,99.90
2018-08-17T04:33:51.577Z,99.90
2018-08-17T04:36:55.201Z,99.90
2018-08-17T04:39:58.840Z,99.90
2018-08-17T04:43:02.458Z,99.90
2018-08-17T04:46:06.078Z,99.90
2018-08-17T04:49:09.716Z,99.90
2018-08-17T04:52:13.300Z,99.90
2018-08-17T04:55:16.905Z,99.90
2018-08-17T04:58:20.602Z,99.90
2018-08-17T05:01:24.222Z,99.50
2018-08-17T05:04:27.869Z,98.90
2018-08-17T05:07:31.470Z,98.40
2018-08-17T05:10:35.094Z,97.80
2018-08-17T05:13:38.699Z,96.60
2018-08-17T05:16:42.315Z,96.00
2018-08-17T05:19:45.913Z,96.30
2018-08-17T05:22:49.538Z,95.70
2018-08-17T05:25:53.162Z,95.50
2018-08-17T05:28:56.794Z,94.90
2018-08-17T05:32:00.600Z,93.90
2018-08-17T05:35:05.344Z,94.40
2018-08-17T05:38:08.957Z,93.50
2018-08-17T05:41:12.579Z,93.70
2018-08-17T05:44:16.190Z,93.20
2018-08-17T05:47:19.950Z,92.80
2018-08-17T05:50:23.557Z,92.40
2018-08-17T05:53:27.181Z,92.20
2018-08-17T05:56:30.827Z,92.50
2018-08-17T05:59:34.462Z,92.30
2018-08-17T06:02:38.061Z,91.70
2018-08-17T06:05:41.727Z,91.60
2018-08-17T06:08:45.398Z,92.00
2018-08-17T06:11:49.018Z,92.20
2018-08-17T06:14:52.605Z,92.40
2018-08-17T06:17:56.247Z,91.50
2018-08-17T06:20:59.857Z,90.80
2018-08-17T06:24:03.498Z,90.10
2018-08-17T06:27:07.110Z,89.40
2018-08-17T06:30:12.150Z,87.40
2018-08-17T06:33:15.754Z,86.40
2018-08-17T06:36:19.377Z,86.80
2018-08-17T06:42:48.793Z,85.80
2018-08-17T06:45:52.454Z,84.50
2018-08-17T06:48:56.077Z,84.40
2018-08-17T06:51:59.700Z,83.60
2018-08-17T06:55:03.334Z,84.60
2018-08-17T06:58:06.937Z,84.10
2018-08-17T07:01:10.570Z,84.10
2018-08-17T07:04:14.173Z,82.90
2018-08-17T07:07:17.965Z,83.70
2018-08-17T07:10:21.601Z,83.00
2018-08-17T07:13:25.258Z,81.70
2018-08-17T07:16:29.048Z,81.60
2018-08-17T07:19:32.625Z,81.80
2018-08-17T07:22:36.226Z,81.90
2018-08-17T07:25:39.949Z,82.10
2018-08-17T07:28:43.585Z,81.90
2018-08-17T07:31:47.200Z,81.90
2018-08-17T07:34:57.466Z,80.40
2018-08-17T07:38:01.081Z,78.10
2018-08-17T07:41:04.708Z,77.70
2018-08-17T07:44:08.433Z,76.50
2018-08-17T07:47:12.058Z,77.50
2018-08-17T07:50:16.794Z,77.60
2018-08-17T07:53:20.480Z,76.60
2018-08-17T07:56:24.102Z,75.90
2018-08-17T07:59:27.739Z,78.20
2018-08-17T08:02:31.370Z,77.70
2018-08-17T08:05:35.005Z,75.50
2018-08-17T08:08:38.693Z,76.60
2018-08-17T08:11:42.375Z,76.20
2018-08-17T08:14:46.005Z,75.40
2018-08-17T08:17:49.611Z,75.10
2018-08-17T08:20:53.239Z,74.70
2018-08-17T08:23:56.848Z,74.50
2018-08-17T08:27:00.462Z,74.00
2018-08-17T08:30:04.363Z,75.50
2018-08-17T08:33:08.013Z,76.00
2018-08-17T08:36:11.598Z,74.90
2018-08-17T08:39:15.237Z,74.70
2018-08-17T08:42:18.940Z,75.30
2018-08-17T08:45:22.672Z,75.60
2018-08-17T08:48:26.241Z,75.40
2018-08-17T08:51:30.026Z,74.80
2018-08-17T08:54:33.677Z,76.20
2018-08-17T08:57:37.767Z,76.20
2018-08-17T09:00:41.378Z,75.60
2018-08-17T09:03:45.039Z,74.40
2018-08-17T09:06:48.634Z,74.20
2018-08-17T09:09:52.302Z,74.20
2018-08-17T09:12:55.930Z,73.70
2018-08-17T09:15:59.606Z,74.50
2018-08-17T09:19:03.465Z,74.30
2018-08-17T09:22:07.140Z,73.50
2018-08-17T09:25:10.926Z,72.90
2018-08-17T09:28:14.557Z,74.50
2018-08-17T09:31:18.181Z,73.90
2018-08-17T09:34:22.605Z,74.50
2018-08-17T09:37:26.297Z,74.00
2018-08-17T09:40:29.977Z,73.90
2018-08-17T09:43:33.727Z,74.70
2018-08-17T09:46:38.373Z,75.30
2018-08-17T09:49:41.988Z,75.30
2018-08-17T09:52:45.698Z,75.70
2018-08-17T09:55:49.302Z,75.30
2018-08-17T09:58:52.965Z,74.00
2018-08-17T10:02:01.990Z,72.80
2018-08-17T10:05:41.331Z,72.70
2018-08-17T10:08:50.392Z,71.60
2018-08-17T10:11:54.010Z,71.00
2018-08-17T10:14:57.613Z,70.00
2018-08-17T10:18:01.255Z,69.60
2018-08-17T10:21:04.984Z,70.00
2018-08-17T10:24:08.489Z,70.70
2018-08-17T10:27:12.106Z,70.80
2018-08-17T10:30:16.105Z,71.60
2018-08-17T10:33:19.737Z,71.20
2018-08-17T10:36:23.402Z,72.20
2018-08-17T10:39:27.104Z,71.80
2018-08-17T10:42:30.930Z,71.30
2018-08-17T10:45:34.814Z,70.90
2018-08-17T10:48:38.459Z,71.20
2018-08-17T10:51:42.077Z,70.20
2018-08-17T10:54:45.698Z,69.50
2018-08-17T10:57:49.307Z,69.00
2018-08-17T11:00:52.944Z,68.80
2018-08-17T11:03:56.586Z,68.70
2018-08-17T11:07:00.349Z,68.30
2018-08-17T11:10:04.078Z,67.70
2018-08-17T11:13:07.715Z,68.30
2018-08-17T11:16:11.331Z,68.10
2018-08-17T11:19:14.945Z,67.20
2018-08-17T11:22:18.588Z,67.10
2018-08-17T11:25:22.204Z,66.60
2018-08-17T11:28:25.859Z,66.80
2018-08-17T11:31:29.567Z,66.90
2018-08-17T11:34:33.139Z,67.10
2018-08-17T11:37:36.960Z,67.20
2018-08-17T11:40:40.559Z,66.60
2018-08-17T11:43:44.186Z,67.20
2018-08-17T11:46:47.829Z,67.20
2018-08-17T11:49:51.429Z,66.80
2018-08-17T11:52:58.110Z,66.00
2018-08-17T11:56:01.751Z,66.10
2018-08-17T11:59:05.363Z,66.10
2018-08-17T12:02:09.006Z,66.00
2018-08-17T12:05:12.706Z,65.70
2018-08-17T12:08:16.422Z,66.10
2018-08-17T12:11:19.920Z,66.10
2018-08-17T12:14:23.654Z,65.70
2018-08-17T12:17:27.258Z,65.20
2018-08-17T12:20:30.901Z,64.70
2018-08-17T12:23:34.605Z,64.80
2018-08-17T12:26:43.937Z,63.90
2018-08-17T12:29:47.567Z,63.10
2018-08-17T12:32:51.201Z,63.20
2018-08-17T12:35:54.907Z,63.50
2018-08-17T12:38:58.541Z,63.90
2018-08-17T12:42:02.321Z,64.10
2018-08-17T12:45:11.355Z,64.30
2018-08-17T12:48:15.853Z,64.90
2018-08-17T12:51:19.471Z,64.20
2018-08-17T12:54:28.250Z,63.80
2018-08-17T12:57:37.242Z,63.80
2018-08-17T13:00:40.874Z,63.70
2018-08-17T13:03:44.509Z,64.40
2018-08-17T13:06:48.120Z,64.80
2018-08-17T13:09:53.525Z,65.20
2018-08-17T13:13:02.381Z,64.90
2018-08-17T13:16:07.982Z,64.70
2018-08-17T13:19:11.580Z,63.90
2018-08-17T13:22:15.189Z,64.60
2018-08-17T13:25:18.977Z,65.00
2018-08-17T13:28:22.614Z,64.50
2018-08-17T13:31:26.476Z,63.90
2018-08-17T13:34:30.114Z,63.90
2018-08-17T13:37:33.776Z,63.30
2018-08-17T13:40:37.395Z,63.00
2018-08-17T13:43:41.093Z,63.20
2018-08-17T13:46:44.722Z,63.40
2018-08-17T13:49:48.313Z,63.30
2018-08-17T13:52:51.950Z,62.70
2018-08-17T13:55:55.613Z,62.50
2018-08-17T13:58:59.236Z,62.80
2018-08-17T14:02:02.896Z,62.30
2018-08-17T14:05:07.366Z,61.90
2018-08-17T14:08:10.970Z,60.70
2018-08-17T14:11:14.578Z,61.40
2018-08-17T14:14:18.181Z,61.10
2018-08-17T14:17:21.838Z,61.90
2018-08-17T14:20:25.437Z,62.60
2018-08-17T14:23:29.091Z,62.90
2018-08-17T14:26:32.705Z,62.50
2018-08-17T14:29:36.408Z,62.40
2018-08-17T14:32:40.167Z,62.90
2018-08-17T14:35:43.784Z,63.60
2018-08-17T14:38:47.391Z,63.60
2018-08-17T14:41:56.179Z,63.20
2018-08-17T14:44:59.794Z,63.70
2018-08-17T14:48:03.434Z,63.70
2018-08-17T14:51:07.074Z,64.10
2018-08-17T14:54:10.690Z,64.70
2018-08-17T14:57:14.466Z,64.70
2018-08-17T15:00:18.903Z,64.80
2018-08-17T15:03:22.631Z,63.90
2018-08-17T15:06:26.287Z,63.50
2018-08-17T15:09:29.889Z,64.10
2018-08-17T15:12:33.531Z,65.10
2018-08-17T15:15:37.113Z,64.50
2018-08-17T15:18:40.747Z,64.30
2018-08-17T15:21:44.342Z,64.00
2018-08-17T15:24:47.974Z,64.50
2018-08-17T15:27:51.569Z,66.10
2018-08-17T15:30:55.219Z,67.50
2018-08-17T15:33:58.813Z,68.50
2018-08-17T15:37:02.691Z,69.20
2018-08-17T15:40:07.987Z,70.10
2018-08-17T15:43:16.859Z,70.30
2018-08-17T15:46:20.554Z,70.90
2018-08-17T15:49:30.445Z,71.10
2018-08-17T15:52:34.037Z,71.40
2018-08-17T15:55:37.685Z,72.00
2018-08-17T15:58:41.285Z,72.10
2018-08-17T16:01:44.993Z,72.30
2018-08-17T16:04:48.740Z,72.50
2018-08-17T16:07:52.320Z,72.80
2018-08-17T16:10:55.947Z,73.00
2018-08-17T16:13:59.600Z,73.20
2018-08-17T16:17:03.236Z,73.10
2018-08-17T16:20:08.166Z,73.60
2018-08-17T16:23:11.748Z,73.60
2018-08-17T16:26:15.376Z,74.00
2018-08-17T16:29:18.990Z,74.00
2018-08-17T16:32:22.630Z,74.00
2018-08-17T16:35:26.258Z,74.30
2018-08-17T16:38:29.912Z,74.20
2018-08-17T16:41:33.538Z,74.40
2018-08-17T16:44:37.145Z,74.40
2018-08-17T16:47:40.799Z,74.50
2018-08-17T16:50:44.380Z,74.60
2018-08-17T16:53:48.038Z,75.40
2018-08-17T16:56:51.683Z,76.70
2018-08-17T16:59:55.344Z,77.80
2018-08-17T17:02:58.950Z,79.00
2018-08-17T17:06:03.653Z,80.20
2018-08-17T17:09:08.011Z,82.00
2018-08-17T17:12:13.485Z,83.40
2018-08-17T17:15:20.117Z,84.70
2018-08-17T17:25:55.623Z,86.40
2018-08-17T17:28:59.266Z,87.90
2018-08-17T17:32:02.907Z,88.70
2018-08-17T17:35:06.534Z,89.70
2018-08-17T17:38:10.666Z,90.40
2018-08-17T17:41:14.297Z,91.10
2018-08-17T17:44:18.027Z,91.40
2018-08-17T17:47:21.694Z,91.80
2018-08-17T17:50:25.302Z,92.20
2018-08-17T17:53:28.994Z,92.50
2018-08-17T17:56:32.677Z,92.60
2018-08-17T17:59:43.050Z,92.90
2018-08-17T18:02:48.642Z,93.10
2018-08-17T18:05:52.327Z,93.10
2018-08-17T18:08:58.856Z,93.00
2018-08-17T18:12:02.501Z,93.00
2018-08-17T18:15:08.093Z,93.10
2018-08-17T18:18:12.059Z,93.20
2018-08-17T18:21:15.671Z,93.30
2018-08-17T18:24:19.306Z,93.40
2018-08-17T18:27:22.945Z,93.40
2018-08-17T18:30:26.631Z,93.60
2018-08-17T18:33:30.263Z,93.60
2018-08-17T18:36:33.900Z,93.40
2018-08-17T18:39:37.510Z,93.40
2018-08-17T18:42:41.148Z,93.60
2018-08-17T18:45:45.750Z,93.60
2018-08-17T18:56:21.264Z,93.80
2018-08-17T18:59:24.951Z,93.80
2018-08-17T19:02:28.550Z,93.80
2018-08-17T19:05:32.175Z,93.90
2018-08-17T19:08:35.798Z,94.00
2018-08-17T19:11:39.406Z,94.20
2018-08-17T19:14:45.373Z,94.20
2018-08-17T19:17:49.010Z,94.30
2018-08-17T19:20:52.678Z,94.30
2018-08-17T19:23:56.318Z,94.40
2018-08-17T19:26:59.965Z,94.60
2018-08-17T19:30:35.450Z,94.70
2018-08-17T19:33:39.097Z,94.80
2018-08-17T19:36:42.937Z,95.00
2018-08-17T19:39:47.278Z,95.10
2018-08-17T19:42:50.909Z,95.20
2018-08-17T19:45:54.632Z,95.30
2018-08-17T19:48:58.180Z,95.50
2018-08-17T19:52:01.815Z,95.60
2018-08-17T19:55:05.973Z,95.70
2018-08-17T19:58:09.694Z,95.70
2018-08-17T20:01:13.273Z,96.10
2018-08-17T20:04:16.890Z,95.90
2018-08-17T20:07:20.543Z,96.10
2018-08-17T20:10:24.187Z,96.10
2018-08-17T20:13:27.846Z,96.00
2018-08-17T20:16:31.458Z,96.10
2018-08-17T20:19:40.542Z,96.20
2018-08-17T20:22:44.283Z,96.40
2018-08-17T20:25:48.017Z,96.50
2018-08-17T20:28:51.526Z,96.70
2018-08-17T20:31:55.493Z,97.00
2018-08-17T20:34:59.094Z,97.20
2018-08-17T20:38:02.700Z,97.30
2018-08-17T20:41:06.351Z,97.40
2018-08-17T20:44:10.039Z,97.40
2018-08-17T20:47:13.654Z,97.50
2018-08-17T20:50:18.588Z,97.40
2018-08-17T20:53:22.204Z,97.30
2018-08-17T20:56:25.990Z,97.20
2018-08-17T20:59:29.785Z,96.90
2018-08-17T21:02:33.397Z,96.60
2018-08-17T21:05:37.037Z,96.60
2018-08-17T21:08:40.666Z,96.70
2018-08-17T21:11:44.342Z,96.60
2018-08-17T21:14:47.949Z,96.70
2018-08-17T21:17:51.574Z,97.00
2018-08-17T21:20:55.187Z,97.10
2018-08-17T21:23:58.824Z,97.30
2018-08-17T21:27:02.456Z,97.50
2018-08-17T21:30:06.495Z,97.70
2018-08-17T21:33:10.116Z,97.80
2018-08-17T21:36:13.733Z,98.20
2018-08-17T21:39:18.363Z,98.10
2018-08-17T21:42:22.014Z,98.30
2018-08-17T21:45:25.650Z,98.60
2018-08-17T21:48:29.278Z,98.90
2018-08-17T21:51:34.325Z,99.10
2018-08-17T21:54:37.973Z,99.40
2018-08-17T21:57:41.570Z,99.80
2018-08-17T22:00:45.202Z,99.90
2018-08-17T22:03:48.827Z,99.90
2018-08-17T22:06:52.449Z,99.90
2018-08-17T22:09:56.078Z,99.90
2018-08-17T22:12:59.713Z,99.90
2018-08-17T22:16:03.723Z,99.90
2018-08-17T22:19:07.456Z,99.90
2018-08-17T22:22:12.253Z,99.90
2018-08-17T22:25:17.350Z,99.90
2018-08-17T22:28:20.966Z,99.90
2018-08-17T22:31:36.346Z,99.90
2018-08-17T22:34:39.971Z,99.90
2018-08-17T22:37:43.635Z,99.90
2018-08-17T22:40:47.260Z,99.90
2018-08-17T22:43:50.869Z,99.90
2018-08-17T22:47:06.860Z,99.90
2018-08-17T22:50:10.479Z,99.90
2018-08-17T22:53:14.113Z,99.90
2018-08-17T22:56:17.718Z,99.90
2018-08-17T22:59:21.365Z,99.90
2018-08-17T23:02:24.998Z,99.90
2018-08-17T23:05:30.954Z,99.90
2018-08-17T23:08:34.589Z,99.90
2018-08-17T23:11:38.241Z,99.90
2018-08-17T23:14:41.891Z,99.90
2018-08-17T23:17:51.007Z,99.90
2018-08-17T23:20:54.617Z,99.90
2018-08-17T23:23:58.302Z,99.90
2018-08-17T23:27:02.048Z,99.90
2018-08-17T23:30:06.554Z,99.90
2018-08-17T23:33:10.475Z,99.90
2018-08-17T23:36:14.090Z,99.90
2018-08-17T23:39:17.713Z,99.90
2018-08-17T23:42:21.390Z,99.90
2018-08-17T23:45:25.008Z,99.90
2018-08-17T23:48:28.642Z,99.90
2018-08-17T23:51:32.267Z,99.90
2018-08-17T23:54:37.005Z,99.90
2018-08-17T23:57:40.674Z,99.90
